SCO45NB EGPH-EGPF

Flight info

Callsign SCO45NB
Flight time N/A
Altitude 8000
Route XEXUS
Aircraft E195/M-SDE3GILORVW/S

Departure

Time N/A
Airport Edinburgh Airport (EGPH)

Arrival

Time 2026-05-06 21:58
Airport Glasgow Airport (EGPF)
Time Latitude Longitude Altitude Speed Heading
2026-05-06 21:58 55.86601 -4.43274 32 ft 0 kts 255°
2026-05-06 22:10 55.86603 -4.43261 32 ft 4 kts 236°
2026-05-06 22:11 55.86616 -4.43245 32 ft 4 kts 248°
2026-05-06 22:11 55.86620 -4.43210 32 ft 4 kts 308°
2026-05-06 22:11 55.86599 -4.43190 32 ft 4 kts 348°
2026-05-06 22:11 55.86574 -4.43180 32 ft 3 kts 344°
2026-05-06 22:12 55.86571 -4.43179 32 ft 1 kts 343°
2026-05-06 22:17 55.86582 -4.43184 31 ft 6 kts 344°
2026-05-06 22:17 55.86633 -4.43210 30 ft 8 kts 344°
2026-05-06 22:18 55.86688 -4.43237 32 ft 8 kts 344°
2026-05-06 22:18 55.86740 -4.43264 32 ft 8 kts 344°
2026-05-06 22:18 55.86797 -4.43267 30 ft 11 kts 31°
2026-05-06 22:18 55.86828 -4.43131 31 ft 13 kts 77°
2026-05-06 22:19 55.86853 -4.42978 32 ft 13 kts 58°
2026-05-06 22:19 55.86928 -4.42901 32 ft 12 kts 25°
2026-05-06 22:19 55.87006 -4.42836 32 ft 12 kts 25°
2026-05-06 22:19 55.87083 -4.42780 32 ft 12 kts 19°
2026-05-06 22:20 55.87174 -4.42723 32 ft 18 kts 20°
2026-05-06 22:20 55.87300 -4.42640 32 ft 20 kts 20°
2026-05-06 22:20 55.87418 -4.42523 32 ft 19 kts 45°
2026-05-06 22:20 55.87510 -4.42354 33 ft 19 kts 46°
2026-05-06 22:21 55.87599 -4.42189 32 ft 18 kts 46°
2026-05-06 22:21 55.87686 -4.42028 29 ft 18 kts 46°
2026-05-06 22:21 55.87756 -4.41898 30 ft 10 kts 46°
2026-05-06 22:21 55.87810 -4.41846 29 ft 8 kts 14°
2026-05-06 22:22 55.87865 -4.41840 29 ft 8 kts 353°
2026-05-06 22:22 55.87905 -4.41870 29 ft 2 kts 319°
2026-05-06 22:22 55.87915 -4.41886 30 ft 3 kts 319°
2026-05-06 22:22 55.87924 -4.41950 31 ft 7 kts 242°
2026-05-06 22:23 55.87911 -4.41977 31 ft 0 kts 226°
2026-05-06 22:23 55.87816 -4.42155 32 ft 52 kts 226°
2026-05-06 22:24 55.87190 -4.43320 35 ft 140 kts 226°
2026-05-06 22:24 55.86690 -4.44231 227 ft 156 kts 224°
2026-05-06 22:24 55.85682 -4.46143 1103 ft 163 kts 227°
2026-05-06 22:24 55.85161 -4.47143 1636 ft 164 kts 227°
2026-05-06 22:25 55.84349 -4.48700 2147 ft 185 kts 226°
2026-05-06 22:25 55.83399 -4.50511 2416 ft 214 kts 225°
2026-05-06 22:25 55.82328 -4.52553 2755 ft 231 kts 225°
2026-05-06 22:25 55.81184 -4.54569 3458 ft 232 kts 222°
2026-05-06 22:26 55.80002 -4.56540 4146 ft 234 kts 222°
2026-05-06 22:26 55.78803 -4.58528 4788 ft 237 kts 222°
2026-05-06 22:26 55.77588 -4.60538 5294 ft 252 kts 223°
2026-05-06 22:26 55.76255 -4.62738 5882 ft 262 kts 223°
2026-05-06 22:27 55.74932 -4.64985 5990 ft 264 kts 225°
2026-05-06 22:27 55.73654 -4.67293 6002 ft 264 kts 225°
2026-05-06 22:27 55.72382 -4.69604 6015 ft 264 kts 225°
2026-05-06 22:27 55.71067 -4.71878 6019 ft 264 kts 224°
2026-05-06 22:28 55.69688 -4.74093 6008 ft 265 kts 216°
2026-05-06 22:28 55.68045 -4.75447 6014 ft 265 kts 195°
2026-05-06 22:28 55.66189 -4.75898 6093 ft 269 kts 183°
2026-05-06 22:28 55.64335 -4.75996 6848 ft 270 kts 182°
2026-05-06 22:29 55.62430 -4.76074 7737 ft 271 kts 182°
2026-05-06 22:29 55.60532 -4.76168 8498 ft 275 kts 182°
2026-05-06 22:29 55.58629 -4.76279 9239 ft 279 kts 183°
2026-05-06 22:29 55.56680 -4.76424 9993 ft 282 kts 183°
2026-05-06 22:30 55.54680 -4.76579 10489 ft 298 kts 184°
2026-05-06 22:30 55.52508 -4.76878 10691 ft 320 kts 192°
2026-05-06 22:30 55.50372 -4.77858 11222 ft 329 kts 197°
2026-05-06 22:30 55.48164 -4.79011 11957 ft 332 kts 198°
2026-05-06 22:31 55.45953 -4.80197 12737 ft 334 kts 198°
2026-05-06 22:31 55.43716 -4.81399 13479 ft 338 kts 198°
2026-05-06 22:31 55.41452 -4.82613 14205 ft 343 kts 198°
2026-05-06 22:31 55.39156 -4.83837 14948 ft 347 kts 198°
2026-05-06 22:32 55.36846 -4.85064 15681 ft 351 kts 198°
2026-05-06 22:32 55.34493 -4.86307 16398 ft 355 kts 198°
2026-05-06 22:32 55.32121 -4.87557 17100 ft 359 kts 198°
2026-05-06 22:32 55.29718 -4.88820 17783 ft 363 kts 198°
2026-05-06 22:33 55.27286 -4.90097 18440 ft 366 kts 198°
2026-05-06 22:33 55.24842 -4.91377 19204 ft 366 kts 198°
2026-05-06 22:33 55.22403 -4.92652 20046 ft 364 kts 198°
2026-05-06 22:33 55.19985 -4.93913 20856 ft 362 kts 198°
2026-05-06 22:34 55.17572 -4.95171 21580 ft 362 kts 198°
2026-05-06 22:34 55.15159 -4.96428 22281 ft 362 kts 199°
2026-05-06 22:34 55.12743 -4.97686 22998 ft 361 kts 199°
2026-05-06 22:34 55.10335 -4.98937 23675 ft 362 kts 199°
2026-05-06 22:35 55.07915 -5.00195 23950 ft 364 kts 199°
2026-05-06 22:35 55.05486 -5.01454 23980 ft 363 kts 199°
2026-05-06 22:35 55.03076 -5.02702 23987 ft 362 kts 199°
2026-05-06 22:35 55.00663 -5.03950 23996 ft 361 kts 199°
2026-05-06 22:36 54.98253 -5.05194 23993 ft 361 kts 199°
2026-05-06 22:36 54.95840 -5.06439 23992 ft 361 kts 199°
2026-05-06 22:36 54.93431 -5.07677 23995 ft 361 kts 198°
2026-05-06 22:36 54.91017 -5.08922 23995 ft 362 kts 199°
2026-05-06 22:37 54.88601 -5.10164 23995 ft 362 kts 198°
2026-05-06 22:37 54.86189 -5.11402 24001 ft 362 kts 198°
2026-05-06 22:37 54.83777 -5.12638 24002 ft 362 kts 198°
2026-05-06 22:37 54.81360 -5.13875 23999 ft 362 kts 198°
2026-05-06 22:38 54.78941 -5.15113 24000 ft 362 kts 198°
2026-05-06 22:38 54.76524 -5.16348 24001 ft 362 kts 198°
2026-05-06 22:38 54.74114 -5.17576 23990 ft 357 kts 198°
2026-05-06 22:38 54.71755 -5.18776 23831 ft 352 kts 198°
2026-05-06 22:39 54.69431 -5.19958 23627 ft 347 kts 198°
2026-05-06 22:39 54.67111 -5.21137 23287 ft 346 kts 198°
2026-05-06 22:39 54.64813 -5.22304 22971 ft 344 kts 198°
2026-05-06 22:39 54.62524 -5.23465 22641 ft 342 kts 198°
2026-05-06 22:40 54.60249 -5.24618 22309 ft 339 kts 198°
2026-05-06 22:40 54.57987 -5.25763 21977 ft 338 kts 198°
2026-05-06 22:40 54.55744 -5.26898 21648 ft 336 kts 198°
2026-05-06 22:40 54.53508 -5.28026 21316 ft 334 kts 198°
2026-05-06 22:41 54.49083 -5.30281 20663 ft 330 kts 200°
2026-05-06 22:41 54.46976 -5.31796 20343 ft 327 kts 207°
2026-05-06 22:41 54.44945 -5.33514 20036 ft 324 kts 208°
2026-05-06 22:42 54.42969 -5.35238 19716 ft 323 kts 208°
2026-05-06 22:42 54.40967 -5.36981 19394 ft 321 kts 208°
2026-05-06 22:42 54.38955 -5.38715 19070 ft 319 kts 208°
2026-05-06 22:42 54.36966 -5.40413 18754 ft 318 kts 208°
2026-05-06 22:43 54.34995 -5.42083 18437 ft 316 kts 207°
2026-05-06 22:43 54.33025 -5.43744 18121 ft 315 kts 207°
2026-05-06 22:43 54.31090 -5.45369 17810 ft 313 kts 207°
2026-05-06 22:43 54.29137 -5.47007 17491 ft 312 kts 207°
2026-05-06 22:44 54.27200 -5.48628 17237 ft 309 kts 207°
2026-05-06 22:44 54.25277 -5.50237 16984 ft 307 kts 207°
2026-05-06 22:44 54.23361 -5.51837 16738 ft 307 kts 207°
2026-05-06 22:44 54.21441 -5.53437 16487 ft 307 kts 207°
2026-05-06 22:45 54.19532 -5.55046 16231 ft 306 kts 210°
2026-05-06 22:45 54.17852 -5.57230 15982 ft 303 kts 225°
2026-05-06 22:45 54.16363 -5.59767 15739 ft 301 kts 226°
2026-05-06 22:45 54.14899 -5.62316 15487 ft 300 kts 226°
2026-05-06 22:46 54.13446 -5.64841 15236 ft 298 kts 226°
2026-05-06 22:46 54.11987 -5.67353 14990 ft 297 kts 226°
2026-05-06 22:46 54.10534 -5.69834 14736 ft 296 kts 226°
2026-05-06 22:46 54.09076 -5.72306 14482 ft 295 kts 225°
2026-05-06 22:47 54.07623 -5.74758 14236 ft 294 kts 225°
2026-05-06 22:47 54.06169 -5.77202 13982 ft 293 kts 225°
2026-05-06 22:47 54.04723 -5.79628 13740 ft 292 kts 225°
2026-05-06 22:47 54.03274 -5.82052 13487 ft 291 kts 225°
2026-05-06 22:48 54.01834 -5.84457 13244 ft 290 kts 225°
2026-05-06 22:48 54.00398 -5.86851 12990 ft 289 kts 225°
2026-05-06 22:48 53.98962 -5.89242 12736 ft 288 kts 225°
2026-05-06 22:48 53.97530 -5.91624 12487 ft 287 kts 225°
2026-05-06 22:49 53.96108 -5.93988 12240 ft 286 kts 225°
2026-05-06 22:49 53.94684 -5.96350 11980 ft 285 kts 225°
2026-05-06 22:49 53.93268 -5.98696 11739 ft 284 kts 225°
2026-05-06 22:49 53.91859 -6.01029 11491 ft 283 kts 225°
2026-05-06 22:50 53.90457 -6.03350 11238 ft 282 kts 225°
2026-05-06 22:50 53.89056 -6.05665 10989 ft 280 kts 225°
2026-05-06 22:50 53.87663 -6.07965 10736 ft 279 kts 225°
2026-05-06 22:50 53.86277 -6.10253 10484 ft 278 kts 225°
2026-05-06 22:51 53.84899 -6.12526 10234 ft 277 kts 224°
2026-05-06 22:51 53.83520 -6.14796 9984 ft 275 kts 224°
2026-05-06 22:51 53.82150 -6.17048 9734 ft 274 kts 224°
2026-05-06 22:51 53.80796 -6.19274 9480 ft 271 kts 224°
2026-05-06 22:52 53.79444 -6.21495 9228 ft 269 kts 224°
2026-05-06 22:52 53.78104 -6.23692 8977 ft 268 kts 224°
2026-05-06 22:52 53.76764 -6.25887 8728 ft 268 kts 224°
2026-05-06 22:52 53.75430 -6.28073 8482 ft 266 kts 224°
2026-05-06 22:53 53.74103 -6.30245 8229 ft 265 kts 224°
2026-05-06 22:53 53.72786 -6.32398 8042 ft 264 kts 224°
2026-05-06 22:53 53.71472 -6.34545 8013 ft 266 kts 224°
2026-05-06 22:53 53.70145 -6.36710 7993 ft 264 kts 224°
2026-05-06 22:54 53.68826 -6.38859 7983 ft 262 kts 224°
2026-05-06 22:54 53.67523 -6.40978 7979 ft 258 kts 224°
2026-05-06 22:54 53.66318 -6.43159 7969 ft 251 kts 239°
2026-05-06 22:54 53.65829 -6.45875 7989 ft 242 kts 269°
2026-05-06 22:55 53.66093 -6.48609 7987 ft 238 kts 291°
2026-05-06 22:55 53.66844 -6.51086 8003 ft 240 kts 300°
2026-05-06 22:55 53.67706 -6.53518 8002 ft 244 kts 300°
2026-05-06 22:55 53.68584 -6.55988 7997 ft 246 kts 300°
2026-05-06 22:56 53.69452 -6.58467 7984 ft 245 kts 297°
2026-05-06 22:56 53.69854 -6.61197 7993 ft 240 kts 269°
2026-05-06 22:56 53.69812 -6.63956 7991 ft 240 kts 268°
2026-05-06 22:56 53.69781 -6.66763 7993 ft 240 kts 268°
2026-05-06 22:57 53.69754 -6.69614 7990 ft 240 kts 268°
2026-05-06 22:57 53.69728 -6.72397 7992 ft 241 kts 269°
2026-05-06 22:57 53.69679 -6.75211 7988 ft 241 kts 262°
2026-05-06 22:57 53.69068 -6.77799 7882 ft 238 kts 231°
2026-05-06 22:58 53.67783 -6.79484 7538 ft 237 kts 201°
2026-05-06 22:58 53.66155 -6.79818 7074 ft 240 kts 171°
2026-05-06 22:58 53.64612 -6.78830 6692 ft 240 kts 149°
2026-05-06 22:58 53.63231 -6.77297 6332 ft 239 kts 146°
2026-05-06 22:59 53.61873 -6.75694 5967 ft 237 kts 146°
2026-05-06 22:59 53.60530 -6.74115 5719 ft 234 kts 146°
2026-05-06 22:59 53.59199 -6.72572 5529 ft 232 kts 146°
2026-05-06 22:59 53.57868 -6.71043 5346 ft 232 kts 146°
2026-05-06 23:00 53.56526 -6.69510 5166 ft 233 kts 147°
2026-05-06 23:00 53.55191 -6.67988 4989 ft 234 kts 147°
2026-05-06 23:00 53.53711 -6.66942 4777 ft 233 kts 177°
2026-05-06 23:00 53.52108 -6.67128 4646 ft 231 kts 186°
2026-05-06 23:01 53.50506 -6.67395 4460 ft 232 kts 185°
2026-05-06 23:01 53.48908 -6.67648 4271 ft 228 kts 185°
2026-05-06 23:01 53.47371 -6.67625 4063 ft 220 kts 162°
2026-05-06 23:01 53.46209 -6.66143 3930 ft 213 kts 119°
2026-05-06 23:02 53.45870 -6.63745 3809 ft 214 kts 96°
2026-05-06 23:02 53.45670 -6.61238 3634 ft 219 kts 99°
2026-05-06 23:02 53.45462 -6.58707 3465 ft 222 kts 98°
2026-05-06 23:02 53.45290 -6.56154 3282 ft 217 kts 97°
2026-05-06 23:03 53.45144 -6.53731 3132 ft 204 kts 97°
2026-05-06 23:03 53.45014 -6.51451 2922 ft 194 kts 97°
2026-05-06 23:03 53.44721 -6.49305 2624 ft 187 kts 115°
2026-05-06 23:03 53.44191 -6.47382 2343 ft 175 kts 117°
2026-05-06 23:04 53.43722 -6.45631 2186 ft 157 kts 114°
2026-05-06 23:04 53.43358 -6.43978 1982 ft 147 kts 110°
2026-05-06 23:04 53.43074 -6.42364 1786 ft 145 kts 104°
2026-05-06 23:04 53.42879 -6.40710 1673 ft 146 kts 103°
2026-05-06 23:05 53.42742 -6.39000 1522 ft 149 kts 95°
2026-05-06 23:05 53.42651 -6.37251 1371 ft 151 kts 95°
2026-05-06 23:05 53.42573 -6.35499 1145 ft 150 kts 95°
2026-05-06 23:05 53.42488 -6.33766 815 ft 148 kts 95°
2026-05-06 23:06 53.42401 -6.32094 602 ft 143 kts 95°
2026-05-06 23:06 53.42320 -6.30431 425 ft 144 kts 96°
2026-05-06 23:06 53.42230 -6.28789 270 ft 144 kts 96°
2026-05-06 23:06 53.42145 -6.27152 222 ft 138 kts 95°
2026-05-06 23:07 53.42083 -6.25610 487 ft 135 kts 92°
2026-05-06 23:07 53.42129 -6.23925 977 ft 151 kts 84°
2026-05-06 23:07 53.42315 -6.22250 1715 ft 145 kts 78°
2026-05-06 23:07 53.42498 -6.20617 2480 ft 147 kts 84°
2026-05-06 23:08 53.42620 -6.18655 2574 ft 182 kts 88°
2026-05-06 23:08 53.42618 -6.17259 2609 ft 181 kts 99°